createdAt,value
2023-10-20T00:00:23.061Z,21.83
2023-10-20T00:03:12.096Z,18.33
2023-10-20T00:05:41.532Z,19.40
2023-10-20T00:08:08.670Z,18.70
2023-10-20T00:10:40.633Z,16.73
2023-10-20T00:13:10.844Z,17.02
2023-10-20T00:15:41.354Z,16.45
2023-10-20T00:21:16.695Z,13.57
2023-10-20T00:23:44.281Z,16.58
2023-10-20T00:26:14.626Z,16.50
2023-10-20T00:28:43.851Z,17.73
2023-10-20T00:31:12.444Z,20.27
2023-10-20T00:34:10.572Z,14.73
2023-10-20T00:36:42.265Z,14.77
2023-10-20T00:39:11.947Z,14.85
2023-10-20T00:41:43.608Z,16.95
2023-10-20T00:44:10.897Z,19.05
2023-10-20T00:46:38.619Z,15.88
2023-10-20T00:49:06.383Z,15.60
2023-10-20T00:58:44.116Z,20.20
2023-10-20T01:01:30.904Z,20.67
2023-10-20T01:04:20.661Z,17.52
2023-10-20T01:07:08.914Z,20.63
2023-10-20T01:10:01.151Z,23.05
2023-10-20T01:12:48.863Z,22.15
2023-10-20T01:15:34.879Z,35.97
2023-10-20T01:18:21.041Z,28.17
2023-10-20T01:21:09.460Z,20.92
2023-10-20T01:23:55.949Z,27.50
2023-10-20T01:26:41.285Z,32.40
2023-10-20T01:29:26.673Z,24.42
2023-10-20T01:32:12.324Z,32.53
2023-10-20T01:34:58.254Z,39.78
2023-10-20T01:37:44.369Z,36.30
2023-10-20T01:40:29.827Z,45.05
2023-10-20T01:43:15.194Z,33.30
2023-10-20T01:46:02.732Z,43.65
2023-10-20T01:48:48.110Z,48.45
2023-10-20T01:51:35.795Z,50.50
2023-10-20T01:54:21.147Z,53.08
2023-10-20T01:57:06.720Z,46.65
2023-10-20T01:59:52.195Z,33.85
2023-10-20T02:02:37.642Z,36.10
2023-10-20T02:05:24.045Z,34.88
2023-10-20T02:08:09.998Z,31.20
2023-10-20T02:10:56.267Z,35.75
2023-10-20T02:13:43.822Z,28.60
2023-10-20T02:16:29.319Z,37.28
2023-10-20T02:19:16.710Z,36.00
2023-10-20T02:22:02.899Z,38.45
2023-10-20T02:24:48.664Z,47.58
2023-10-20T02:27:34.089Z,31.38
2023-10-20T02:30:20.183Z,45.17
2023-10-20T02:33:06.759Z,35.97
2023-10-20T02:35:55.522Z,40.75
2023-10-20T02:38:41.236Z,33.03
2023-10-20T02:41:26.627Z,32.88
2023-10-20T02:44:14.671Z,27.10
2023-10-20T02:47:00.110Z,26.05
2023-10-20T02:49:46.540Z,37.55
2023-10-20T02:52:32.075Z,29.83
2023-10-20T02:55:17.536Z,24.75
2023-10-20T02:58:02.739Z,20.02
2023-10-20T03:00:51.497Z,20.05
2023-10-20T03:03:37.859Z,22.17
2023-10-20T03:06:23.783Z,18.50
2023-10-20T03:09:09.611Z,19.40
2023-10-20T03:11:55.081Z,23.27
2023-10-20T03:14:40.648Z,21.00
2023-10-20T03:17:27.848Z,20.40
2023-10-20T03:20:18.638Z,21.15
2023-10-20T03:23:04.581Z,21.58
2023-10-20T03:25:55.055Z,24.52
2023-10-20T03:28:41.638Z,22.73
2023-10-20T03:31:27.234Z,25.25
2023-10-20T03:34:12.804Z,39.13
2023-10-20T03:37:01.904Z,36.97
2023-10-20T03:39:48.034Z,28.70
2023-10-20T03:42:34.260Z,26.23
2023-10-20T03:45:28.058Z,26.75
2023-10-20T03:48:13.604Z,38.10
2023-10-20T03:50:59.434Z,34.88
2023-10-20T03:53:48.976Z,35.60
2023-10-20T03:56:36.326Z,34.47
2023-10-20T03:59:21.793Z,35.65
2023-10-20T04:02:07.225Z,41.17
2023-10-20T04:04:53.130Z,41.25
2023-10-20T04:07:38.366Z,33.95
2023-10-20T04:10:24.333Z,27.45
2023-10-20T04:13:11.339Z,26.23
2023-10-20T04:16:14.209Z,21.08
2023-10-20T04:19:02.022Z,35.20
2023-10-20T04:21:47.610Z,30.52
2023-10-20T04:24:33.736Z,23.55
2023-10-20T04:27:22.986Z,33.15
2023-10-20T04:30:27.799Z,38.42
2023-10-20T04:33:32.254Z,44.17
2023-10-20T04:36:36.607Z,24.75
2023-10-20T04:39:40.969Z,36.58
2023-10-20T04:42:37.278Z,42.95
2023-10-20T04:45:25.576Z,29.05
2023-10-20T04:48:30.184Z,40.05
2023-10-20T04:51:34.389Z,28.05
2023-10-20T04:54:44.786Z,32.05
2023-10-20T04:57:45.664Z,45.45
2023-10-20T05:00:38.355Z,40.33
2023-10-20T05:03:32.520Z,33.72
2023-10-20T05:06:21.628Z,41.20
2023-10-20T05:09:10.340Z,39.47
2023-10-20T05:11:55.930Z,38.90
2023-10-20T05:14:41.614Z,39.45
2023-10-20T05:17:28.966Z,47.30
2023-10-20T05:20:15.127Z,45.85
2023-10-20T05:23:02.364Z,33.05
2023-10-20T05:25:51.073Z,35.45
2023-10-20T05:28:36.319Z,38.40
2023-10-20T05:31:30.952Z,43.25
2023-10-20T05:34:16.690Z,33.67
2023-10-20T05:37:02.733Z,39.03
2023-10-20T05:39:48.696Z,37.53
2023-10-20T05:42:34.152Z,40.78
2023-10-20T05:45:22.188Z,40.78
2023-10-20T05:48:09.446Z,44.28
2023-10-20T05:50:58.460Z,34.67
2023-10-20T05:53:43.932Z,33.78
2023-10-20T05:56:29.340Z,40.05
2023-10-20T05:59:15.215Z,41.90
2023-10-20T06:02:00.609Z,47.47
2023-10-20T06:04:45.847Z,37.33
2023-10-20T06:07:31.188Z,28.88
2023-10-20T06:10:23.380Z,27.85
2023-10-20T06:15:55.256Z,31.05
2023-10-20T06:18:43.420Z,29.95
2023-10-20T06:21:29.717Z,30.50
2023-10-20T06:24:15.673Z,31.40
2023-10-20T06:27:04.037Z,36.05
2023-10-20T06:29:56.608Z,33.60
2023-10-20T06:32:46.212Z,34.38
2023-10-20T06:35:34.152Z,34.90
2023-10-20T06:38:32.014Z,41.53
2023-10-20T06:41:18.116Z,33.28
2023-10-20T06:44:03.600Z,33.63
2023-10-20T06:46:49.113Z,36.45
2023-10-20T06:49:34.475Z,29.00
2023-10-20T06:52:20.012Z,32.95
2023-10-20T06:57:55.129Z,24.67
2023-10-20T07:00:41.223Z,29.92
2023-10-20T07:03:26.856Z,35.70
2023-10-20T07:06:12.902Z,31.33
2023-10-20T07:08:58.839Z,32.45
2023-10-20T07:11:45.375Z,34.97
2023-10-20T07:14:31.099Z,35.00
2023-10-20T07:17:17.049Z,38.33
2023-10-20T07:20:06.088Z,33.17
2023-10-20T07:22:51.265Z,32.90
2023-10-20T07:25:36.645Z,27.92
2023-10-20T07:28:23.107Z,32.85
2023-10-20T07:31:16.829Z,32.75
2023-10-20T07:34:03.310Z,35.53
2023-10-20T07:36:48.875Z,25.30
2023-10-20T07:39:35.477Z,32.20
2023-10-20T07:42:21.313Z,28.63
2023-10-20T07:45:08.672Z,29.77
2023-10-20T07:47:53.915Z,26.70
2023-10-20T07:50:40.341Z,25.52
2023-10-20T07:53:28.066Z,25.50
2023-10-20T07:56:13.452Z,27.10
2023-10-20T07:58:59.291Z,24.23
2023-10-20T08:01:44.867Z,22.73
2023-10-20T08:04:30.925Z,22.83
2023-10-20T08:07:17.339Z,19.45
2023-10-20T08:10:02.950Z,17.45
2023-10-20T08:12:48.229Z,22.40
2023-10-20T08:15:40.121Z,17.52
2023-10-20T08:18:25.906Z,22.65
2023-10-20T08:21:11.828Z,16.30
2023-10-20T08:24:00.380Z,19.40
2023-10-20T08:26:45.719Z,19.77
2023-10-20T08:29:33.076Z,22.05
2023-10-20T08:32:18.812Z,20.17
2023-10-20T08:35:08.871Z,17.88
2023-10-20T08:37:54.518Z,17.23
2023-10-20T08:43:29.122Z,13.80
2023-10-20T08:46:17.907Z,21.80
2023-10-20T08:49:06.702Z,19.88
2023-10-20T08:51:55.142Z,23.42
2023-10-20T08:54:41.104Z,18.42
2023-10-20T08:57:28.930Z,25.60
2023-10-20T09:00:21.914Z,19.70
2023-10-20T09:03:07.606Z,21.55
2023-10-20T09:06:06.915Z,17.65
2023-10-20T09:08:53.039Z,15.73
2023-10-20T09:11:42.086Z,15.68
2023-10-20T09:14:29.135Z,16.73
2023-10-20T09:17:35.436Z,13.73
2023-10-20T09:20:21.741Z,17.33
2023-10-20T09:23:14.016Z,18.85
2023-10-20T09:26:00.226Z,17.38
2023-10-20T09:28:51.285Z,20.73
2023-10-20T09:31:37.195Z,17.98
2023-10-20T09:34:22.833Z,19.75
2023-10-20T09:37:12.562Z,20.08
2023-10-20T09:40:09.827Z,17.08
2023-10-20T09:43:26.216Z,14.65
2023-10-20T09:47:00.863Z,17.58
2023-10-20T09:49:47.406Z,16.63
2023-10-20T09:52:34.246Z,17.17
2023-10-20T09:55:20.923Z,18.00
2023-10-20T09:58:06.771Z,16.02
2023-10-20T10:00:52.233Z,17.98
2023-10-20T10:03:43.690Z,15.90
2023-10-20T10:06:39.526Z,19.80
2023-10-20T10:09:36.868Z,18.38
2023-10-20T10:12:28.446Z,15.77
2023-10-20T10:15:15.076Z,17.73
2023-10-20T10:18:13.258Z,13.13
2023-10-20T10:21:06.496Z,16.38
2023-10-20T10:24:21.805Z,13.60
2023-10-20T10:27:08.742Z,17.38
2023-10-20T10:30:01.301Z,15.98
2023-10-20T10:32:48.849Z,17.25
2023-10-20T10:35:38.238Z,14.05
2023-10-20T10:38:28.233Z,16.25
2023-10-20T10:41:14.209Z,14.30
2023-10-20T10:43:59.872Z,15.38
2023-10-20T10:46:49.068Z,10.30
2023-10-20T10:49:35.013Z,11.93
2023-10-20T10:52:20.493Z,12.07
2023-10-20T10:55:06.986Z,11.63
2023-10-20T10:57:52.807Z,12.50
2023-10-20T11:00:46.139Z,13.95
2023-10-20T11:03:32.492Z,13.10
2023-10-20T11:06:00.896Z,9.98
2023-10-20T11:08:30.819Z,9.93
2023-10-20T11:11:00.333Z,9.68
2023-10-20T11:13:33.855Z,11.13
2023-10-20T11:16:04.725Z,9.93
2023-10-20T11:18:34.217Z,11.05
2023-10-20T11:21:02.344Z,13.52
2023-10-20T11:23:31.696Z,9.70
2023-10-20T11:25:59.506Z,9.43
2023-10-20T11:28:29.873Z,10.27
2023-10-20T11:30:57.950Z,9.85
2023-10-20T11:33:25.356Z,9.15
2023-10-20T11:35:54.790Z,10.00
2023-10-20T11:38:23.662Z,8.50
2023-10-20T11:40:52.100Z,8.88
2023-10-20T11:43:19.100Z,9.27
2023-10-20T11:45:46.553Z,9.93
2023-10-20T11:48:13.646Z,11.02
2023-10-20T11:50:41.121Z,9.65
2023-10-20T11:53:08.237Z,8.35
2023-10-20T11:55:36.109Z,11.52
2023-10-20T11:58:05.064Z,13.00
2023-10-20T12:00:33.081Z,9.50
2023-10-20T12:03:00.149Z,10.73
2023-10-20T12:05:27.782Z,12.63
2023-10-20T12:07:54.772Z,14.18
2023-10-20T12:10:24.966Z,10.23
2023-10-20T12:12:52.736Z,11.65
2023-10-20T12:15:20.514Z,9.77
2023-10-20T12:17:47.860Z,9.25
2023-10-20T12:20:16.440Z,16.88
2023-10-20T12:22:43.603Z,14.52
2023-10-20T12:25:11.100Z,17.27
2023-10-20T12:27:39.051Z,16.83
2023-10-20T12:30:07.408Z,18.25
2023-10-20T12:32:34.695Z,19.42
2023-10-20T12:35:02.041Z,17.35
2023-10-20T12:37:29.132Z,14.13
2023-10-20T12:39:56.626Z,14.57
2023-10-20T12:42:23.923Z,16.02
2023-10-20T12:44:51.340Z,11.43
2023-10-20T12:47:20.329Z,14.27
2023-10-20T12:49:47.734Z,19.40
2023-10-20T12:52:14.807Z,12.77
2023-10-20T12:54:42.761Z,14.15
2023-10-20T12:57:09.941Z,14.48
2023-10-20T12:59:37.293Z,11.65
2023-10-20T13:02:05.364Z,13.30
2023-10-20T13:04:32.844Z,11.38
2023-10-20T13:07:01.268Z,11.88
2023-10-20T13:09:29.385Z,12.32
2023-10-20T13:12:00.066Z,10.98
2023-10-20T13:14:29.826Z,11.07
2023-10-20T13:16:58.110Z,10.05
2023-10-20T13:19:25.647Z,10.98
2023-10-20T13:21:53.926Z,10.23
2023-10-20T13:24:21.281Z,10.00
2023-10-20T13:26:48.313Z,9.57
2023-10-20T13:29:16.779Z,12.07
2023-10-20T13:31:44.011Z,9.80
2023-10-20T13:34:11.426Z,10.52
2023-10-20T13:36:38.729Z,13.77
2023-10-20T13:39:17.202Z,11.10
2023-10-20T13:41:47.121Z,17.38
2023-10-20T13:44:16.032Z,18.58
2023-10-20T13:46:42.976Z,21.20
2023-10-20T13:49:10.417Z,14.68
2023-10-20T13:51:37.493Z,14.85
2023-10-20T13:54:05.663Z,12.65
2023-10-20T13:56:33.133Z,13.82
2023-10-20T13:59:00.438Z,12.60
2023-10-20T14:01:27.618Z,12.35
2023-10-20T14:03:55.240Z,12.68
2023-10-20T14:06:24.854Z,13.15
2023-10-20T14:08:52.696Z,13.70
2023-10-20T14:11:19.975Z,12.68
2023-10-20T14:13:47.607Z,10.30
2023-10-20T14:16:14.706Z,13.70
2023-10-20T14:18:42.523Z,16.20
2023-10-20T14:21:09.968Z,12.85
2023-10-20T14:23:37.377Z,12.77
2023-10-20T14:26:04.530Z,16.63
2023-10-20T14:28:34.702Z,10.43
2023-10-20T14:31:03.104Z,14.77
2023-10-20T14:33:31.245Z,14.00
2023-10-20T14:35:58.729Z,17.88
2023-10-20T14:38:27.754Z,10.65
2023-10-20T14:41:03.711Z,22.58
2023-10-20T14:43:36.888Z,20.10
2023-10-20T14:46:07.009Z,25.17
2023-10-20T14:48:35.441Z,18.90
2023-10-20T14:51:08.667Z,20.50
2023-10-20T14:53:36.585Z,18.63
2023-10-20T14:56:04.849Z,18.08
2023-10-20T14:58:32.436Z,16.77
2023-10-20T15:00:59.849Z,18.02
2023-10-20T15:03:27.947Z,18.17
2023-10-20T15:05:55.219Z,31.60
2023-10-20T15:08:24.291Z,30.60
2023-10-20T15:10:51.720Z,21.45
2023-10-20T15:13:21.233Z,32.15
2023-10-20T15:15:48.529Z,25.83
2023-10-20T15:18:15.904Z,15.30
2023-10-20T15:20:43.064Z,14.80
2023-10-20T15:23:17.821Z,15.70
2023-10-20T15:25:46.261Z,17.02
2023-10-20T15:28:14.027Z,12.93
2023-10-20T15:30:41.267Z,17.55
2023-10-20T15:33:09.108Z,13.45
2023-10-20T15:35:40.319Z,16.70
2023-10-20T15:38:11.414Z,15.07
2023-10-20T15:40:39.987Z,15.40
2023-10-20T15:43:07.704Z,15.32
2023-10-20T15:45:35.717Z,13.25
2023-10-20T15:48:06.114Z,12.68
2023-10-20T15:50:33.906Z,11.10
2023-10-20T15:53:03.742Z,12.02
2023-10-20T15:55:30.790Z,13.48
2023-10-20T15:57:58.057Z,11.40
2023-10-20T16:00:26.126Z,12.00
2023-10-20T16:02:53.567Z,11.05
2023-10-20T16:05:20.941Z,13.98
2023-10-20T16:07:48.479Z,10.98
2023-10-20T16:10:15.549Z,13.32
2023-10-20T16:12:42.910Z,10.05
2023-10-20T16:15:10.865Z,13.23
2023-10-20T16:17:38.381Z,11.40
2023-10-20T16:20:06.321Z,12.60
2023-10-20T16:22:33.639Z,11.48
2023-10-20T16:25:00.813Z,8.43
2023-10-20T16:27:28.735Z,10.23
2023-10-20T16:29:55.864Z,9.23
2023-10-20T16:32:24.429Z,11.93
2023-10-20T16:34:52.228Z,11.50
2023-10-20T16:37:20.534Z,9.50
2023-10-20T16:39:47.895Z,10.63
2023-10-20T16:42:15.330Z,14.13
2023-10-20T16:44:42.774Z,10.82
2023-10-20T16:47:10.358Z,11.65
2023-10-20T16:49:37.926Z,11.30
2023-10-20T16:52:06.077Z,11.02
2023-10-20T16:54:33.296Z,13.27
2023-10-20T16:57:00.601Z,14.50
2023-10-20T16:59:29.861Z,18.80
2023-10-20T17:01:57.414Z,18.67
2023-10-20T17:04:25.385Z,17.02
2023-10-20T17:06:52.885Z,18.25
2023-10-20T17:09:19.922Z,26.98
2023-10-20T17:11:47.346Z,24.05
2023-10-20T17:14:14.494Z,29.25
2023-10-20T17:16:44.491Z,170.30
2023-10-20T17:19:11.606Z,45.70
2023-10-20T17:21:39.011Z,37.95
2023-10-20T17:24:07.288Z,34.03
2023-10-20T17:26:36.415Z,27.30
2023-10-20T17:29:15.374Z,26.55
2023-10-20T17:31:43.143Z,28.98
2023-10-20T17:34:10.186Z,22.02
2023-10-20T17:36:37.624Z,24.20
2023-10-20T17:39:07.339Z,22.40
2023-10-20T17:41:49.481Z,22.63
2023-10-20T17:44:16.921Z,23.98
2023-10-20T17:46:44.303Z,21.70
2023-10-20T17:49:11.341Z,24.25
2023-10-20T17:51:38.598Z,20.25
2023-10-20T17:54:05.802Z,19.52
2023-10-20T17:56:33.312Z,25.42
2023-10-20T17:59:00.411Z,21.67
2023-10-20T18:01:27.820Z,42.65
2023-10-20T18:03:55.120Z,27.67
2023-10-20T18:06:22.627Z,28.42
2023-10-20T18:08:52.626Z,26.65
2023-10-20T18:11:22.034Z,21.65
2023-10-20T18:13:52.402Z,18.35
2023-10-20T18:16:22.366Z,23.38
2023-10-20T18:18:51.025Z,17.90
2023-10-20T18:21:21.208Z,19.00
2023-10-20T18:23:48.838Z,23.00
2023-10-20T18:26:16.315Z,24.63
2023-10-20T18:28:43.591Z,19.80
2023-10-20T18:31:16.904Z,25.00
2023-10-20T18:33:46.375Z,22.08
2023-10-20T18:36:13.862Z,20.42
2023-10-20T18:38:41.621Z,19.08
2023-10-20T18:41:18.350Z,20.90
2023-10-20T18:43:46.226Z,17.92
2023-10-20T18:46:14.364Z,16.25
2023-10-20T18:48:42.196Z,18.25
2023-10-20T18:51:13.937Z,16.27
2023-10-20T18:53:42.351Z,14.15
2023-10-20T18:56:10.380Z,16.55
2023-10-20T18:58:38.057Z,15.18
2023-10-20T19:01:05.613Z,14.05
2023-10-20T19:03:35.087Z,14.25
2023-10-20T19:06:09.592Z,21.00
2023-10-20T19:08:38.333Z,13.80
2023-10-20T19:11:11.409Z,14.57
2023-10-20T19:13:39.276Z,12.93
2023-10-20T19:16:07.104Z,28.67
2023-10-20T19:18:34.677Z,16.48
2023-10-20T19:21:06.223Z,18.63
2023-10-20T19:23:34.457Z,16.98
2023-10-20T19:26:06.611Z,15.35
2023-10-20T19:28:33.877Z,21.73
2023-10-20T19:31:05.586Z,22.15
2023-10-20T19:33:33.275Z,24.05
2023-10-20T19:36:07.379Z,16.30
2023-10-20T19:38:35.363Z,17.73
2023-10-20T19:41:02.984Z,17.60
2023-10-20T19:43:30.402Z,15.48
2023-10-20T19:45:57.919Z,13.75
2023-10-20T19:48:25.302Z,17.40
2023-10-20T19:50:52.902Z,15.60
2023-10-20T19:53:20.447Z,15.25
2023-10-20T19:55:47.929Z,15.88
2023-10-20T19:58:15.258Z,12.07
2023-10-20T20:00:42.889Z,14.23
2023-10-20T20:03:11.913Z,15.63
2023-10-20T20:05:39.931Z,14.35
2023-10-20T20:08:07.357Z,14.38
2023-10-20T20:10:34.746Z,14.45
2023-10-20T20:13:04.579Z,15.43
2023-10-20T20:15:32.354Z,13.23
2023-10-20T20:17:59.593Z,15.55
2023-10-20T20:20:27.416Z,14.02
2023-10-20T20:22:54.550Z,14.68
2023-10-20T20:25:22.110Z,13.45
2023-10-20T20:27:49.441Z,13.88
2023-10-20T20:30:16.822Z,14.52
2023-10-20T20:32:44.579Z,13.90
2023-10-20T20:35:12.108Z,13.07
2023-10-20T20:37:39.082Z,16.98
2023-10-20T20:40:08.777Z,14.65
2023-10-20T20:42:36.371Z,13.43
2023-10-20T20:45:04.524Z,14.32
2023-10-20T20:47:31.691Z,14.65
2023-10-20T20:49:59.574Z,15.25
2023-10-20T20:52:26.605Z,17.88
2023-10-20T20:54:56.058Z,20.55
2023-10-20T20:57:23.873Z,14.70
2023-10-20T20:59:51.367Z,16.92
2023-10-20T21:02:18.475Z,14.20
2023-10-20T21:04:46.119Z,16.73
2023-10-20T21:07:13.152Z,16.48
2023-10-20T21:09:40.566Z,16.33
2023-10-20T21:12:08.232Z,23.88
2023-10-20T21:14:35.919Z,16.85
2023-10-20T21:17:03.628Z,15.98
2023-10-20T21:19:30.936Z,17.65
2023-10-20T21:21:58.083Z,20.42
2023-10-20T21:24:25.368Z,16.73
2023-10-20T21:26:54.123Z,15.85
2023-10-20T21:29:26.584Z,16.42
2023-10-20T21:31:54.211Z,14.02
2023-10-20T21:34:21.633Z,15.50
2023-10-20T21:36:48.667Z,20.67
2023-10-20T21:39:16.598Z,26.42
2023-10-20T21:41:43.755Z,15.93
2023-10-20T21:44:11.515Z,19.13
2023-10-20T21:46:39.499Z,17.38
2023-10-20T21:49:10.002Z,19.10
2023-10-20T21:51:37.118Z,19.40
2023-10-20T21:54:07.988Z,18.85
2023-10-20T21:56:35.297Z,14.95
2023-10-20T21:59:02.634Z,14.45
2023-10-20T22:01:29.850Z,13.25
2023-10-20T22:03:57.244Z,15.43
2023-10-20T22:06:24.546Z,19.23
2023-10-20T22:08:52.704Z,16.58
2023-10-20T22:11:19.869Z,22.48
2023-10-20T22:13:47.089Z,18.40
2023-10-20T22:16:14.182Z,15.60
2023-10-20T22:18:41.648Z,15.82
2023-10-20T22:21:08.695Z,18.35
2023-10-20T22:23:36.173Z,22.23
2023-10-20T22:26:03.253Z,16.70
2023-10-20T22:28:32.434Z,20.30
2023-10-20T22:30:59.863Z,21.38
2023-10-20T22:33:27.345Z,15.50
2023-10-20T22:35:54.556Z,15.07
2023-10-20T22:38:21.883Z,14.57
2023-10-20T22:40:49.456Z,11.85
2023-10-20T22:43:16.690Z,13.27
2023-10-20T22:45:43.861Z,12.10
2023-10-20T22:48:11.224Z,12.57
2023-10-20T22:50:38.343Z,21.00
2023-10-20T22:53:05.882Z,15.35
2023-10-20T22:55:33.314Z,14.75
2023-10-20T22:58:00.673Z,18.50
2023-10-20T23:00:27.832Z,13.90
2023-10-20T23:02:55.207Z,13.73
2023-10-20T23:05:23.273Z,14.73
2023-10-20T23:07:51.392Z,13.00
2023-10-20T23:10:18.485Z,12.85
2023-10-20T23:12:45.895Z,14.93
2023-10-20T23:15:13.029Z,12.77
2023-10-20T23:17:40.397Z,13.18
2023-10-20T23:20:08.581Z,24.38
2023-10-20T23:22:35.942Z,17.65
2023-10-20T23:25:04.045Z,14.18
2023-10-20T23:27:31.333Z,14.13
2023-10-20T23:29:58.448Z,15.88
2023-10-20T23:32:26.106Z,11.15
2023-10-20T23:34:54.537Z,12.07
2023-10-20T23:37:22.830Z,12.63
2023-10-20T23:39:50.118Z,13.98
2023-10-20T23:42:17.444Z,13.20
2023-10-20T23:44:44.704Z,12.57
2023-10-20T23:47:12.032Z,13.57
2023-10-20T23:49:39.917Z,14.25
2023-10-20T23:52:07.349Z,12.65
2023-10-20T23:54:34.412Z,10.73
2023-10-20T23:57:05.094Z,13.02
2023-10-20T23:59:32.269Z,16.30
